KOLY/OLY METAR and TAF weather

Enter ICAO airport designator
Station Type Date Time Source
KOLY METAR 2019/02/16 17:15 UTC NOAA

KOLY 161715Z AUTO 05009KT 360V060 10SM CLR M01/M05 A3008 RMK AO2 T10111051


Station Type Date Time Source
KOLY Decoded METAR 2019/02/16 17:15 UTC NOAA

Olney-Noble, Olney-Noble Airport, IL, United States (KOLY) 38-43-19N 088-10-35W
Feb 16, 2019 - 12:15 PM EST / 2019.02.16 1715 UTC
Wind: from the NE (050 degrees) at 10 MPH (9 KT) (direction variable):0
Visibility: 10 mile(s):0
Sky conditions: clear
Temperature: 30.0 F (-1.1 C)
Windchill: 21 F (-6 C):1
Dew Point: 22.8 F (-5.1 C)
Relative Humidity: 74%
Pressure (altimeter): 30.08 in. Hg (1018 hPa)
ob: KOLY 161715Z AUTO 05009KT 360V060 10SM CLR M01/M05 A3008 RMK AO2 T10111051
cycle: 17

Station Type Date Time Source
KOLY TAF UTC NOAA

Error!


Example: see airport list